sensor_id;sensor_type;location;lat;lon;timestamp;P1;durP1;ratioP1;P2;durP2;ratioP2
3875;SDS011;1953;51.222;6.624;2023-09-18T00:03:00;12.43;;;9.27;;
3875;SDS011;1953;51.222;6.624;2023-09-18T00:07:44;14.37;;;8.90;;
3875;SDS011;1953;51.222;6.624;2023-09-18T00:12:27;11.73;;;8.77;;
3875;SDS011;1953;51.222;6.624;2023-09-18T00:18:10;16.90;;;9.20;;
3875;SDS011;1953;51.222;6.624;2023-09-18T00:22:53;12.80;;;9.00;;
3875;SDS011;1953;51.222;6.624;2023-09-18T00:27:35;15.07;;;9.00;;
3875;SDS011;1953;51.222;6.624;2023-09-18T00:32:18;16.00;;;9.17;;
3875;SDS011;1953;51.222;6.624;2023-09-18T00:37:02;14.77;;;9.77;;
3875;SDS011;1953;51.222;6.624;2023-09-18T00:41:45;18.83;;;9.73;;
3875;SDS011;1953;51.222;6.624;2023-09-18T00:46:30;13.00;;;10.03;;
3875;SDS011;1953;51.222;6.624;2023-09-18T00:51:13;18.30;;;10.17;;
3875;SDS011;1953;51.222;6.624;2023-09-18T00:55:57;12.93;;;9.50;;
3875;SDS011;1953;51.222;6.624;2023-09-18T01:00:42;14.90;;;9.63;;
3875;SDS011;1953;51.222;6.624;2023-09-18T01:05:26;17.10;;;11.00;;
3875;SDS011;1953;51.222;6.624;2023-09-18T01:10:09;15.90;;;10.30;;
3875;SDS011;1953;51.222;6.624;2023-09-18T01:14:59;14.53;;;9.77;;
3875;SDS011;1953;51.222;6.624;2023-09-18T01:19:47;19.03;;;9.30;;
3875;SDS011;1953;51.222;6.624;2023-09-18T01:24:31;19.70;;;10.27;;
3875;SDS011;1953;51.222;6.624;2023-09-18T01:29:14;12.17;;;8.80;;
3875;SDS011;1953;51.222;6.624;2023-09-18T01:34:00;15.90;;;10.03;;
3875;SDS011;1953;51.222;6.624;2023-09-18T01:38:43;15.73;;;9.53;;
3875;SDS011;1953;51.222;6.624;2023-09-18T01:43:28;14.87;;;9.97;;
3875;SDS011;1953;51.222;6.624;2023-09-18T01:48:11;20.43;;;8.93;;
3875;SDS011;1953;51.222;6.624;2023-09-18T01:52:53;20.93;;;9.60;;
3875;SDS011;1953;51.222;6.624;2023-09-18T01:57:36;20.33;;;10.00;;
3875;SDS011;1953;51.222;6.624;2023-09-18T02:02:20;17.00;;;10.40;;
3875;SDS011;1953;51.222;6.624;2023-09-18T02:07:02;21.13;;;9.53;;
3875;SDS011;1953;51.222;6.624;2023-09-18T02:11:46;20.60;;;9.43;;
3875;SDS011;1953;51.222;6.624;2023-09-18T02:16:29;18.13;;;9.77;;
3875;SDS011;1953;51.222;6.624;2023-09-18T02:21:13;20.40;;;10.00;;
3875;SDS011;1953;51.222;6.624;2023-09-18T02:26:01;17.27;;;9.80;;
3875;SDS011;1953;51.222;6.624;2023-09-18T02:30:43;14.93;;;9.80;;
3875;SDS011;1953;51.222;6.624;2023-09-18T02:35:26;13.10;;;9.27;;
3875;SDS011;1953;51.222;6.624;2023-09-18T02:40:10;15.63;;;9.90;;
3875;SDS011;1953;51.222;6.624;2023-09-18T02:44:53;13.20;;;9.10;;
3875;SDS011;1953;51.222;6.624;2023-09-18T02:49:36;13.47;;;8.73;;
3875;SDS011;1953;51.222;6.624;2023-09-18T02:54:19;13.63;;;8.60;;
3875;SDS011;1953;51.222;6.624;2023-09-18T02:59:03;13.03;;;9.03;;
3875;SDS011;1953;51.222;6.624;2023-09-18T03:03:45;14.20;;;9.33;;
3875;SDS011;1953;51.222;6.624;2023-09-18T03:08:28;15.70;;;9.30;;
3875;SDS011;1953;51.222;6.624;2023-09-18T03:13:13;17.40;;;9.30;;
3875;SDS011;1953;51.222;6.624;2023-09-18T03:17:58;16.10;;;9.60;;
3875;SDS011;1953;51.222;6.624;2023-09-18T03:22:41;18.73;;;9.83;;
3875;SDS011;1953;51.222;6.624;2023-09-18T03:27:23;21.10;;;9.87;;
3875;SDS011;1953;51.222;6.624;2023-09-18T03:32:09;21.67;;;10.20;;
3875;SDS011;1953;51.222;6.624;2023-09-18T03:36:54;20.20;;;10.50;;
3875;SDS011;1953;51.222;6.624;2023-09-18T03:41:37;18.67;;;10.23;;
3875;SDS011;1953;51.222;6.624;2023-09-18T03:46:19;16.57;;;9.70;;
3875;SDS011;1953;51.222;6.624;2023-09-18T03:51:02;14.17;;;10.20;;
3875;SDS011;1953;51.222;6.624;2023-09-18T03:55:47;19.97;;;10.27;;
3875;SDS011;1953;51.222;6.624;2023-09-18T04:00:30;16.83;;;9.60;;
3875;SDS011;1953;51.222;6.624;2023-09-18T04:05:13;16.63;;;9.43;;
3875;SDS011;1953;51.222;6.624;2023-09-18T04:09:55;18.33;;;9.67;;
3875;SDS011;1953;51.222;6.624;2023-09-18T04:14:39;18.77;;;9.20;;
3875;SDS011;1953;51.222;6.624;2023-09-18T04:19:22;15.53;;;9.17;;
3875;SDS011;1953;51.222;6.624;2023-09-18T04:24:04;18.97;;;8.80;;
3875;SDS011;1953;51.222;6.624;2023-09-18T04:28:47;14.13;;;9.07;;
3875;SDS011;1953;51.222;6.624;2023-09-18T04:33:31;15.30;;;7.97;;
3875;SDS011;1953;51.222;6.624;2023-09-18T04:38:14;14.73;;;7.80;;
3875;SDS011;1953;51.222;6.624;2023-09-18T04:42:57;17.00;;;6.30;;
3875;SDS011;1953;51.222;6.624;2023-09-18T04:47:40;14.30;;;6.83;;
3875;SDS011;1953;51.222;6.624;2023-09-18T04:52:24;20.13;;;7.10;;
3875;SDS011;1953;51.222;6.624;2023-09-18T04:57:06;12.13;;;6.67;;
3875;SDS011;1953;51.222;6.624;2023-09-18T05:01:49;17.03;;;7.13;;
3875;SDS011;1953;51.222;6.624;2023-09-18T05:06:31;15.33;;;6.80;;
3875;SDS011;1953;51.222;6.624;2023-09-18T05:11:15;20.63;;;7.90;;
3875;SDS011;1953;51.222;6.624;2023-09-18T05:15:59;18.80;;;8.07;;
3875;SDS011;1953;51.222;6.624;2023-09-18T05:20:42;18.00;;;8.20;;
3875;SDS011;1953;51.222;6.624;2023-09-18T05:25:25;20.53;;;8.70;;
3875;SDS011;1953;51.222;6.624;2023-09-18T05:30:12;15.00;;;8.10;;
3875;SDS011;1953;51.222;6.624;2023-09-18T05:34:56;15.80;;;7.30;;
3875;SDS011;1953;51.222;6.624;2023-09-18T05:39:42;18.07;;;8.50;;
3875;SDS011;1953;51.222;6.624;2023-09-18T05:44:25;16.10;;;7.53;;
3875;SDS011;1953;51.222;6.624;2023-09-18T05:49:09;13.97;;;7.23;;
3875;SDS011;1953;51.222;6.624;2023-09-18T05:53:53;13.43;;;7.10;;
3875;SDS011;1953;51.222;6.624;2023-09-18T05:58:35;16.23;;;7.57;;
3875;SDS011;1953;51.222;6.624;2023-09-18T06:03:18;13.43;;;6.73;;
3875;SDS011;1953;51.222;6.624;2023-09-18T06:08:03;15.77;;;6.77;;
3875;SDS011;1953;51.222;6.624;2023-09-18T06:12:46;13.33;;;6.60;;
3875;SDS011;1953;51.222;6.624;2023-09-18T06:17:29;16.37;;;6.77;;
3875;SDS011;1953;51.222;6.624;2023-09-18T06:22:11;11.13;;;5.90;;
3875;SDS011;1953;51.222;6.624;2023-09-18T06:26:55;15.63;;;5.70;;
3875;SDS011;1953;51.222;6.624;2023-09-18T06:31:38;15.43;;;5.40;;
3875;SDS011;1953;51.222;6.624;2023-09-18T06:36:21;21.20;;;5.30;;
3875;SDS011;1953;51.222;6.624;2023-09-18T06:41:03;14.70;;;5.57;;
3875;SDS011;1953;51.222;6.624;2023-09-18T06:45:47;10.63;;;4.50;;
3875;SDS011;1953;51.222;6.624;2023-09-18T06:50:30;12.10;;;4.50;;
3875;SDS011;1953;51.222;6.624;2023-09-18T06:55:12;7.50;;;3.93;;
3875;SDS011;1953;51.222;6.624;2023-09-18T06:59:56;11.60;;;3.73;;
3875;SDS011;1953;51.222;6.624;2023-09-18T07:04:40;10.03;;;3.90;;
3875;SDS011;1953;51.222;6.624;2023-09-18T07:09:25;7.37;;;3.53;;
3875;SDS011;1953;51.222;6.624;2023-09-18T07:14:08;5.47;;;3.30;;
3875;SDS011;1953;51.222;6.624;2023-09-18T07:18:50;9.20;;;2.80;;
3875;SDS011;1953;51.222;6.624;2023-09-18T07:23:34;6.70;;;2.30;;
3875;SDS011;1953;51.222;6.624;2023-09-18T07:28:17;5.10;;;2.47;;
3875;SDS011;1953;51.222;6.624;2023-09-18T07:33:00;10.27;;;2.40;;
3875;SDS011;1953;51.222;6.624;2023-09-18T07:37:43;3.60;;;2.03;;
3875;SDS011;1953;51.222;6.624;2023-09-18T07:42:28;8.23;;;2.28;;
3875;SDS011;1953;51.222;6.624;2023-09-18T07:47:11;5.30;;;2.37;;
3875;SDS011;1953;51.222;6.624;2023-09-18T07:51:53;4.43;;;1.80;;
3875;SDS011;1953;51.222;6.624;2023-09-18T07:56:36;4.80;;;2.43;;
3875;SDS011;1953;51.222;6.624;2023-09-18T08:01:20;5.97;;;1.93;;
3875;SDS011;1953;51.222;6.624;2023-09-18T08:06:03;7.13;;;2.57;;
3875;SDS011;1953;51.222;6.624;2023-09-18T08:10:47;9.37;;;2.37;;
3875;SDS011;1953;51.222;6.624;2023-09-18T08:15:29;4.40;;;2.07;;
3875;SDS011;1953;51.222;6.624;2023-09-18T08:20:13;6.80;;;2.63;;
3875;SDS011;1953;51.222;6.624;2023-09-18T08:24:56;3.40;;;1.97;;
3875;SDS011;1953;51.222;6.624;2023-09-18T08:29:38;11.23;;;2.20;;
3875;SDS011;1953;51.222;6.624;2023-09-18T08:34:21;4.10;;;1.63;;
3875;SDS011;1953;51.222;6.624;2023-09-18T08:39:05;11.33;;;2.30;;
3875;SDS011;1953;51.222;6.624;2023-09-18T08:43:47;5.53;;;2.40;;
3875;SDS011;1953;51.222;6.624;2023-09-18T08:48:32;4.10;;;2.17;;
3875;SDS011;1953;51.222;6.624;2023-09-18T08:53:17;8.60;;;2.00;;
3875;SDS011;1953;51.222;6.624;2023-09-18T08:58:01;4.53;;;1.90;;
3875;SDS011;1953;51.222;6.624;2023-09-18T09:02:43;6.17;;;2.47;;
3875;SDS011;1953;51.222;6.624;2023-09-18T09:07:29;5.00;;;2.00;;
3875;SDS011;1953;51.222;6.624;2023-09-18T09:12:12;4.33;;;1.80;;
3875;SDS011;1953;51.222;6.624;2023-09-18T09:16:56;6.03;;;1.90;;
3875;SDS011;1953;51.222;6.624;2023-09-18T09:21:39;6.53;;;2.10;;
3875;SDS011;1953;51.222;6.624;2023-09-18T09:26:24;4.00;;;1.90;;
3875;SDS011;1953;51.222;6.624;2023-09-18T09:31:06;11.00;;;2.07;;
3875;SDS011;1953;51.222;6.624;2023-09-18T09:35:50;6.90;;;2.60;;
3875;SDS011;1953;51.222;6.624;2023-09-18T09:40:33;8.20;;;2.57;;
3875;SDS011;1953;51.222;6.624;2023-09-18T09:45:17;7.30;;;2.00;;
3875;SDS011;1953;51.222;6.624;2023-09-18T09:50:05;3.73;;;2.00;;
3875;SDS011;1953;51.222;6.624;2023-09-18T09:54:51;6.53;;;2.23;;
3875;SDS011;1953;51.222;6.624;2023-09-18T09:59:34;7.90;;;2.10;;
3875;SDS011;1953;51.222;6.624;2023-09-18T10:04:17;5.80;;;2.30;;
3875;SDS011;1953;51.222;6.624;2023-09-18T10:09:00;5.40;;;2.30;;
3875;SDS011;1953;51.222;6.624;2023-09-18T10:13:47;5.75;;;2.20;;
3875;SDS011;1953;51.222;6.624;2023-09-18T10:18:37;9.10;;;2.10;;
3875;SDS011;1953;51.222;6.624;2023-09-18T10:23:27;7.57;;;2.20;;
3875;SDS011;1953;51.222;6.624;2023-09-18T10:28:21;6.30;;;2.10;;
3875;SDS011;1953;51.222;6.624;2023-09-18T10:33:08;8.23;;;2.63;;
3875;SDS011;1953;51.222;6.624;2023-09-18T10:37:51;7.30;;;2.43;;
3875;SDS011;1953;51.222;6.624;2023-09-18T10:42:37;7.00;;;2.67;;
3875;SDS011;1953;51.222;6.624;2023-09-18T10:47:20;6.00;;;2.30;;
3875;SDS011;1953;51.222;6.624;2023-09-18T10:52:06;4.77;;;2.37;;
3875;SDS011;1953;51.222;6.624;2023-09-18T10:56:54;8.33;;;2.43;;
3875;SDS011;1953;51.222;6.624;2023-09-18T11:01:38;6.63;;;2.40;;
3875;SDS011;1953;51.222;6.624;2023-09-18T11:06:21;6.50;;;2.53;;
3875;SDS011;1953;51.222;6.624;2023-09-18T11:11:09;5.03;;;2.10;;
3875;SDS011;1953;51.222;6.624;2023-09-18T11:15:58;6.10;;;2.43;;
3875;SDS011;1953;51.222;6.624;2023-09-18T11:20:44;5.73;;;2.20;;
3875;SDS011;1953;51.222;6.624;2023-09-18T11:25:46;4.67;;;2.63;;
3875;SDS011;1953;51.222;6.624;2023-09-18T11:30:30;7.10;;;2.63;;
3875;SDS011;1953;51.222;6.624;2023-09-18T11:35:13;7.07;;;2.90;;
3875;SDS011;1953;51.222;6.624;2023-09-18T11:39:58;8.80;;;2.70;;
3875;SDS011;1953;51.222;6.624;2023-09-18T11:44:40;4.37;;;2.33;;
3875;SDS011;1953;51.222;6.624;2023-09-18T11:49:26;4.07;;;2.40;;
3875;SDS011;1953;51.222;6.624;2023-09-18T11:54:12;7.10;;;2.53;;
3875;SDS011;1953;51.222;6.624;2023-09-18T11:58:56;4.83;;;2.47;;
3875;SDS011;1953;51.222;6.624;2023-09-18T12:03:40;9.00;;;2.80;;
3875;SDS011;1953;51.222;6.624;2023-09-18T12:08:25;3.27;;;2.37;;
3875;SDS011;1953;51.222;6.624;2023-09-18T12:13:08;4.60;;;2.47;;
3875;SDS011;1953;51.222;6.624;2023-09-18T12:19:16;6.43;;;3.10;;
3875;SDS011;1953;51.222;6.624;2023-09-18T12:23:59;5.43;;;2.67;;
3875;SDS011;1953;51.222;6.624;2023-09-18T12:28:42;4.00;;;2.40;;
3875;SDS011;1953;51.222;6.624;2023-09-18T12:33:25;4.37;;;2.33;;
3875;SDS011;1953;51.222;6.624;2023-09-18T12:38:16;4.90;;;2.50;;
3875;SDS011;1953;51.222;6.624;2023-09-18T12:43:00;5.27;;;2.10;;
3875;SDS011;1953;51.222;6.624;2023-09-18T12:47:44;8.20;;;1.85;;
3875;SDS011;1953;51.222;6.624;2023-09-18T12:52:26;5.22;;;2.08;;
3875;SDS011;1953;51.222;6.624;2023-09-18T12:57:14;2.50;;;1.92;;
3875;SDS011;1953;51.222;6.624;2023-09-18T13:01:58;4.85;;;2.20;;
3875;SDS011;1953;51.222;6.624;2023-09-18T13:06:40;6.30;;;2.20;;
3875;SDS011;1953;51.222;6.624;2023-09-18T13:11:23;5.68;;;2.20;;
3875;SDS011;1953;51.222;6.624;2023-09-18T13:16:08;3.55;;;2.17;;
3875;SDS011;1953;51.222;6.624;2023-09-18T13:20:51;4.85;;;2.35;;
3875;SDS011;1953;51.222;6.624;2023-09-18T13:25:35;2.53;;;2.00;;
3875;SDS011;1953;51.222;6.624;2023-09-18T13:30:19;4.28;;;2.47;;
3875;SDS011;1953;51.222;6.624;2023-09-18T13:35:04;4.78;;;2.42;;
3875;SDS011;1953;51.222;6.624;2023-09-18T13:39:47;4.90;;;2.55;;
3875;SDS011;1953;51.222;6.624;2023-09-18T13:44:30;2.70;;;2.17;;
3875;SDS011;1953;51.222;6.624;2023-09-18T13:49:12;3.60;;;2.30;;
3875;SDS011;1953;51.222;6.624;2023-09-18T13:53:56;4.63;;;2.38;;
3875;SDS011;1953;51.222;6.624;2023-09-18T13:58:39;5.78;;;2.30;;
3875;SDS011;1953;51.222;6.624;2023-09-18T14:03:22;5.18;;;2.30;;
3875;SDS011;1953;51.222;6.624;2023-09-18T14:08:04;4.00;;;2.00;;
3875;SDS011;1953;51.222;6.624;2023-09-18T14:12:48;3.25;;;2.30;;
3875;SDS011;1953;51.222;6.624;2023-09-18T14:17:32;5.43;;;2.20;;
3875;SDS011;1953;51.222;6.624;2023-09-18T14:22:14;4.20;;;2.30;;
3875;SDS011;1953;51.222;6.624;2023-09-18T14:26:57;4.18;;;2.35;;
3875;SDS011;1953;51.222;6.624;2023-09-18T14:31:41;4.10;;;2.33;;
3875;SDS011;1953;51.222;6.624;2023-09-18T14:36:24;4.32;;;2.40;;
3875;SDS011;1953;51.222;6.624;2023-09-18T14:41:07;3.70;;;2.30;;
3875;SDS011;1953;51.222;6.624;2023-09-18T14:45:50;5.17;;;2.27;;
3875;SDS011;1953;51.222;6.624;2023-09-18T14:50:34;8.88;;;2.10;;
3875;SDS011;1953;51.222;6.624;2023-09-18T14:55:17;6.53;;;2.45;;
3875;SDS011;1953;51.222;6.624;2023-09-18T14:59:59;7.88;;;2.47;;
3875;SDS011;1953;51.222;6.624;2023-09-18T15:04:42;9.15;;;2.15;;
3875;SDS011;1953;51.222;6.624;2023-09-18T15:09:25;4.18;;;2.40;;
3875;SDS011;1953;51.222;6.624;2023-09-18T15:14:08;4.65;;;2.22;;
3875;SDS011;1953;51.222;6.624;2023-09-18T15:18:51;6.43;;;2.00;;
3875;SDS011;1953;51.222;6.624;2023-09-18T15:23:34;9.43;;;3.03;;
3875;SDS011;1953;51.222;6.624;2023-09-18T15:28:18;8.15;;;2.40;;
3875;SDS011;1953;51.222;6.624;2023-09-18T15:33:01;6.78;;;2.00;;
3875;SDS011;1953;51.222;6.624;2023-09-18T15:37:44;5.88;;;2.00;;
3875;SDS011;1953;51.222;6.624;2023-09-18T15:42:26;6.07;;;2.10;;
3875;SDS011;1953;51.222;6.624;2023-09-18T15:47:10;5.60;;;2.30;;
3875;SDS011;1953;51.222;6.624;2023-09-18T15:51:53;12.02;;;2.75;;
3875;SDS011;1953;51.222;6.624;2023-09-18T15:56:36;6.18;;;2.10;;
3875;SDS011;1953;51.222;6.624;2023-09-18T16:01:19;7.90;;;2.70;;
3875;SDS011;1953;51.222;6.624;2023-09-18T16:06:03;10.45;;;2.00;;
3875;SDS011;1953;51.222;6.624;2023-09-18T16:10:47;9.25;;;2.38;;
3875;SDS011;1953;51.222;6.624;2023-09-18T16:15:29;3.15;;;1.77;;
3875;SDS011;1953;51.222;6.624;2023-09-18T16:20:12;4.25;;;2.40;;
3875;SDS011;1953;51.222;6.624;2023-09-18T16:24:56;8.45;;;2.40;;
3875;SDS011;1953;51.222;6.624;2023-09-18T16:29:40;9.43;;;2.47;;
3875;SDS011;1953;51.222;6.624;2023-09-18T16:34:22;7.50;;;2.60;;
3875;SDS011;1953;51.222;6.624;2023-09-18T16:39:05;8.27;;;2.30;;
3875;SDS011;1953;51.222;6.624;2023-09-18T16:43:49;6.90;;;2.20;;
3875;SDS011;1953;51.222;6.624;2023-09-18T16:48:32;9.67;;;2.77;;
3875;SDS011;1953;51.222;6.624;2023-09-18T16:53:15;8.80;;;3.07;;
3875;SDS011;1953;51.222;6.624;2023-09-18T16:57:57;9.20;;;2.93;;
3875;SDS011;1953;51.222;6.624;2023-09-18T17:02:41;7.20;;;2.40;;
3875;SDS011;1953;51.222;6.624;2023-09-18T17:07:24;4.77;;;2.50;;
3875;SDS011;1953;51.222;6.624;2023-09-18T17:12:07;3.80;;;2.33;;
3875;SDS011;1953;51.222;6.624;2023-09-18T17:16:51;8.57;;;2.60;;
3875;SDS011;1953;51.222;6.624;2023-09-18T17:21:35;8.70;;;2.83;;
3875;SDS011;1953;51.222;6.624;2023-09-18T17:26:17;9.30;;;2.57;;
3875;SDS011;1953;51.222;6.624;2023-09-18T17:31:00;14.67;;;2.70;;
3875;SDS011;1953;51.222;6.624;2023-09-18T17:35:44;9.30;;;2.70;;
3875;SDS011;1953;51.222;6.624;2023-09-18T17:40:30;12.67;;;2.90;;
3875;SDS011;1953;51.222;6.624;2023-09-18T17:45:13;11.00;;;2.60;;
3875;SDS011;1953;51.222;6.624;2023-09-18T17:49:56;4.80;;;2.30;;
3875;SDS011;1953;51.222;6.624;2023-09-18T17:54:38;10.30;;;2.80;;
3875;SDS011;1953;51.222;6.624;2023-09-18T17:59:22;6.90;;;2.20;;
3875;SDS011;1953;51.222;6.624;2023-09-18T18:04:05;5.60;;;2.43;;
3875;SDS011;1953;51.222;6.624;2023-09-18T18:08:48;7.70;;;2.63;;
3875;SDS011;1953;51.222;6.624;2023-09-18T18:13:30;6.83;;;2.67;;
3875;SDS011;1953;51.222;6.624;2023-09-18T18:18:14;7.40;;;3.13;;
3875;SDS011;1953;51.222;6.624;2023-09-18T18:22:57;6.57;;;2.80;;
3875;SDS011;1953;51.222;6.624;2023-09-18T18:27:41;5.30;;;2.50;;
3875;SDS011;1953;51.222;6.624;2023-09-18T18:32:24;7.10;;;3.30;;
3875;SDS011;1953;51.222;6.624;2023-09-18T18:37:08;5.90;;;3.10;;
3875;SDS011;1953;51.222;6.624;2023-09-18T18:41:51;5.90;;;2.90;;
3875;SDS011;1953;51.222;6.624;2023-09-18T18:46:33;6.23;;;2.63;;
3875;SDS011;1953;51.222;6.624;2023-09-18T18:51:16;5.90;;;2.93;;
3875;SDS011;1953;51.222;6.624;2023-09-18T18:56:02;6.30;;;2.80;;
3875;SDS011;1953;51.222;6.624;2023-09-18T19:00:45;6.23;;;3.53;;
3875;SDS011;1953;51.222;6.624;2023-09-18T19:05:28;8.63;;;3.53;;
3875;SDS011;1953;51.222;6.624;2023-09-18T19:10:11;8.00;;;3.07;;
3875;SDS011;1953;51.222;6.624;2023-09-18T19:14:54;5.13;;;2.90;;
3875;SDS011;1953;51.222;6.624;2023-09-18T19:19:38;6.60;;;3.30;;
3875;SDS011;1953;51.222;6.624;2023-09-18T19:24:21;5.37;;;3.10;;
3875;SDS011;1953;51.222;6.624;2023-09-18T19:29:03;8.20;;;3.60;;
3875;SDS011;1953;51.222;6.624;2023-09-18T19:33:47;6.20;;;3.03;;
3875;SDS011;1953;51.222;6.624;2023-09-18T19:38:30;6.70;;;3.30;;
3875;SDS011;1953;51.222;6.624;2023-09-18T19:43:13;8.73;;;3.80;;
3875;SDS011;1953;51.222;6.624;2023-09-18T19:47:55;5.37;;;2.93;;
3875;SDS011;1953;51.222;6.624;2023-09-18T19:52:39;9.07;;;3.33;;
3875;SDS011;1953;51.222;6.624;2023-09-18T19:57:22;6.20;;;3.00;;
3875;SDS011;1953;51.222;6.624;2023-09-18T20:02:04;7.70;;;3.80;;
3875;SDS011;1953;51.222;6.624;2023-09-18T20:06:47;9.97;;;3.40;;
3875;SDS011;1953;51.222;6.624;2023-09-18T20:11:34;5.80;;;3.20;;
3875;SDS011;1953;51.222;6.624;2023-09-18T20:16:18;7.10;;;4.17;;
3875;SDS011;1953;51.222;6.624;2023-09-18T20:21:00;6.50;;;3.20;;
3875;SDS011;1953;51.222;6.624;2023-09-18T20:25:45;6.20;;;3.47;;
3875;SDS011;1953;51.222;6.624;2023-09-18T20:30:29;6.03;;;3.87;;
3875;SDS011;1953;51.222;6.624;2023-09-18T20:35:12;8.37;;;3.50;;
3875;SDS011;1953;51.222;6.624;2023-09-18T20:39:57;7.60;;;3.43;;
3875;SDS011;1953;51.222;6.624;2023-09-18T20:44:40;6.53;;;3.50;;
3875;SDS011;1953;51.222;6.624;2023-09-18T20:49:24;8.50;;;4.00;;
3875;SDS011;1953;51.222;6.624;2023-09-18T20:54:07;6.03;;;3.70;;
3875;SDS011;1953;51.222;6.624;2023-09-18T20:58:53;6.70;;;3.17;;
3875;SDS011;1953;51.222;6.624;2023-09-18T21:03:46;6.80;;;3.77;;
3875;SDS011;1953;51.222;6.624;2023-09-18T21:08:30;7.77;;;3.17;;
3875;SDS011;1953;51.222;6.624;2023-09-18T21:13:13;5.83;;;3.50;;
3875;SDS011;1953;51.222;6.624;2023-09-18T21:17:55;6.80;;;3.07;;
3875;SDS011;1953;51.222;6.624;2023-09-18T21:22:38;7.80;;;3.77;;
3875;SDS011;1953;51.222;6.624;2023-09-18T21:27:22;10.60;;;3.47;;
3875;SDS011;1953;51.222;6.624;2023-09-18T21:32:05;5.70;;;3.30;;
3875;SDS011;1953;51.222;6.624;2023-09-18T21:36:48;8.93;;;3.80;;
3875;SDS011;1953;51.222;6.624;2023-09-18T21:41:30;5.30;;;2.83;;
3875;SDS011;1953;51.222;6.624;2023-09-18T21:46:15;5.97;;;3.47;;
3875;SDS011;1953;51.222;6.624;2023-09-18T21:50:58;11.70;;;3.43;;
3875;SDS011;1953;51.222;6.624;2023-09-18T21:55:43;8.07;;;3.43;;
3875;SDS011;1953;51.222;6.624;2023-09-18T22:00:27;6.13;;;3.93;;
3875;SDS011;1953;51.222;6.624;2023-09-18T22:05:11;7.20;;;3.87;;
3875;SDS011;1953;51.222;6.624;2023-09-18T22:09:54;9.33;;;3.83;;
3875;SDS011;1953;51.222;6.624;2023-09-18T22:14:37;6.33;;;3.90;;
3875;SDS011;1953;51.222;6.624;2023-09-18T22:19:19;7.90;;;3.40;;
3875;SDS011;1953;51.222;6.624;2023-09-18T22:24:03;7.60;;;3.20;;
3875;SDS011;1953;51.222;6.624;2023-09-18T22:28:46;6.53;;;3.10;;
3875;SDS011;1953;51.222;6.624;2023-09-18T22:33:28;12.10;;;4.00;;
3875;SDS011;1953;51.222;6.624;2023-09-18T22:38:15;7.17;;;2.83;;
3875;SDS011;1953;51.222;6.624;2023-09-18T22:58:24;13.30;;;3.30;;
3875;SDS011;1953;51.222;6.624;2023-09-18T23:03:07;10.13;;;2.93;;
3875;SDS011;1953;51.222;6.624;2023-09-18T23:07:51;6.97;;;3.27;;
3875;SDS011;1953;51.222;6.624;2023-09-18T23:12:36;8.53;;;3.90;;
3875;SDS011;1953;51.222;6.624;2023-09-18T23:17:20;7.33;;;3.17;;
3875;SDS011;1953;51.222;6.624;2023-09-18T23:22:03;6.97;;;3.07;;
3875;SDS011;1953;51.222;6.624;2023-09-18T23:26:46;8.73;;;3.47;;
3875;SDS011;1953;51.222;6.624;2023-09-18T23:31:29;8.07;;;3.40;;
3875;SDS011;1953;51.222;6.624;2023-09-18T23:36:13;12.03;;;3.00;;
3875;SDS011;1953;51.222;6.624;2023-09-18T23:40:57;11.13;;;3.60;;
3875;SDS011;1953;51.222;6.624;2023-09-18T23:45:41;6.50;;;2.83;;
3875;SDS011;1953;51.222;6.624;2023-09-18T23:50:23;11.33;;;3.10;;
3875;SDS011;1953;51.222;6.624;2023-09-18T23:55:11;11.57;;;2.90;;
3875;SDS011;1953;51.222;6.624;2023-09-18T23:59:56;11.23;;;3.40;;
